createdAt,value
2022-10-15T00:00:41.923Z,21.00
2022-10-15T00:02:04.965Z,11.27
2022-10-15T00:03:06.761Z,13.90
2022-10-15T00:04:09.311Z,21.27
2022-10-15T00:05:10.895Z,18.75
2022-10-15T00:06:15.145Z,13.73
2022-10-15T00:07:16.673Z,19.67
2022-10-15T00:08:19.151Z,15.35
2022-10-15T00:09:22.069Z,15.23
2022-10-15T00:10:24.943Z,14.38
2022-10-15T00:11:28.392Z,12.90
2022-10-15T00:12:30.917Z,16.23
2022-10-15T00:13:33.273Z,15.10
2022-10-15T00:14:35.774Z,12.77
2022-10-15T00:15:37.791Z,18.13
2022-10-15T00:16:40.348Z,15.77
2022-10-15T00:17:42.385Z,14.93
2022-10-15T00:18:45.412Z,23.30
2022-10-15T00:19:47.131Z,13.48
2022-10-15T00:20:49.630Z,16.63
2022-10-15T00:21:51.198Z,13.68
2022-10-15T00:22:53.786Z,14.32
2022-10-15T00:23:56.596Z,17.67
2022-10-15T00:25:00.501Z,15.20
2022-10-15T00:26:06.568Z,15.00
2022-10-15T00:27:09.403Z,15.32
2022-10-15T00:28:10.899Z,12.25
2022-10-15T00:29:13.832Z,16.67
2022-10-15T00:30:15.490Z,12.85
2022-10-15T00:31:20.765Z,13.85
2022-10-15T00:32:22.558Z,14.15
2022-10-15T00:33:25.338Z,12.40
2022-10-15T00:34:26.851Z,12.80
2022-10-15T00:35:29.424Z,13.85
2022-10-15T00:36:33.580Z,16.48
2022-10-15T00:37:37.310Z,15.15
2022-10-15T00:38:39.341Z,16.83
2022-10-15T00:39:41.817Z,20.33
2022-10-15T00:40:44.662Z,17.92
2022-10-15T00:41:47.224Z,17.55
2022-10-15T00:42:48.780Z,20.70
2022-10-15T00:43:53.809Z,18.67
2022-10-15T00:44:57.245Z,18.77
2022-10-15T00:45:59.715Z,15.68
2022-10-15T00:47:06.716Z,14.65
2022-10-15T00:48:10.412Z,15.10
2022-10-15T00:49:17.829Z,19.30
2022-10-15T00:50:22.703Z,18.25
2022-10-15T00:51:29.416Z,13.25
2022-10-15T00:52:40.358Z,13.80
2022-10-15T00:53:41.937Z,18.35
2022-10-15T00:54:48.803Z,17.00
2022-10-15T00:55:52.104Z,12.45
2022-10-15T00:56:56.342Z,15.15
2022-10-15T00:58:01.025Z,13.55
2022-10-15T00:59:05.929Z,16.25
2022-10-15T01:00:10.962Z,15.90
2022-10-15T01:01:13.590Z,17.77
2022-10-15T01:02:17.355Z,14.82
2022-10-15T01:03:19.845Z,13.23
2022-10-15T01:04:23.526Z,17.02
2022-10-15T01:05:26.260Z,16.02
2022-10-15T01:06:28.438Z,22.63
2022-10-15T01:07:30.983Z,16.45
2022-10-15T01:08:33.327Z,20.00
2022-10-15T01:09:36.228Z,26.48
2022-10-15T01:10:47.453Z,18.20
2022-10-15T01:11:53.032Z,18.42
2022-10-15T01:13:03.098Z,18.52
2022-10-15T01:14:19.487Z,22.40
2022-10-15T01:15:26.114Z,15.88
2022-10-15T01:16:36.949Z,20.00
2022-10-15T01:17:44.908Z,21.13
2022-10-15T01:18:53.308Z,15.20
2022-10-15T01:20:20.489Z,15.75
2022-10-15T01:21:30.659Z,18.40
2022-10-15T01:22:50.624Z,14.98
2022-10-15T01:24:22.080Z,17.50
2022-10-15T01:25:34.084Z,20.67
2022-10-15T01:27:14.216Z,20.30
2022-10-15T01:28:25.206Z,19.75
2022-10-15T01:29:43.842Z,25.00
2022-10-15T01:30:50.999Z,21.33
2022-10-15T01:31:59.634Z,18.65
2022-10-15T01:33:15.837Z,21.75
2022-10-15T01:34:25.092Z,19.88
2022-10-15T01:35:35.931Z,19.38
2022-10-15T01:36:45.645Z,21.88
2022-10-15T01:37:55.616Z,19.88
2022-10-15T01:39:02.035Z,21.80
2022-10-15T01:40:10.938Z,18.02
2022-10-15T01:41:19.956Z,22.75
2022-10-15T01:42:28.582Z,23.40
2022-10-15T01:43:36.317Z,16.98
2022-10-15T01:44:42.910Z,21.27
2022-10-15T01:45:50.180Z,18.65
2022-10-15T01:46:58.969Z,21.58
2022-10-15T01:48:06.528Z,17.98
2022-10-15T01:49:10.177Z,17.70
2022-10-15T01:50:15.963Z,20.42
2022-10-15T01:51:18.944Z,17.15
2022-10-15T01:52:26.716Z,19.17
2022-10-15T01:53:29.520Z,17.08
2022-10-15T01:54:32.430Z,20.25
2022-10-15T01:55:36.749Z,17.80
2022-10-15T01:56:40.349Z,17.40
2022-10-15T01:57:44.653Z,26.08
2022-10-15T01:58:50.032Z,21.52
2022-10-15T01:59:52.511Z,20.38
2022-10-15T02:00:58.103Z,15.45
2022-10-15T02:01:59.695Z,16.05
2022-10-15T02:03:03.079Z,13.95
2022-10-15T02:04:18.787Z,21.95
2022-10-15T02:05:27.587Z,16.27
2022-10-15T02:06:35.421Z,17.65
2022-10-15T02:07:47.102Z,15.02
2022-10-15T02:08:59.220Z,16.95
2022-10-15T02:10:09.045Z,14.27
2022-10-15T02:11:14.367Z,16.50
2022-10-15T02:12:32.137Z,19.27
2022-10-15T02:13:51.461Z,15.60
2022-10-15T02:15:01.314Z,20.48
2022-10-15T02:16:12.859Z,18.05
2022-10-15T02:17:19.425Z,18.00
2022-10-15T02:18:28.898Z,20.30
2022-10-15T02:19:37.147Z,21.42
2022-10-15T02:20:45.358Z,19.20
2022-10-15T02:21:52.869Z,23.40
2022-10-15T02:23:00.584Z,28.13
2022-10-15T02:24:09.852Z,22.52
2022-10-15T02:25:16.832Z,27.60
2022-10-15T02:26:21.023Z,20.13
2022-10-15T02:27:24.200Z,29.63
2022-10-15T02:28:29.743Z,24.58
2022-10-15T02:29:34.873Z,26.38
2022-10-15T02:30:40.293Z,28.40
2022-10-15T02:31:46.253Z,27.13
2022-10-15T02:32:51.938Z,29.48
2022-10-15T02:33:58.901Z,27.08
2022-10-15T02:35:01.719Z,28.23
2022-10-15T02:36:04.755Z,21.77
2022-10-15T02:37:07.939Z,26.88
2022-10-15T02:38:16.131Z,26.45
2022-10-15T02:39:21.838Z,28.42
2022-10-15T02:40:28.811Z,25.58
2022-10-15T02:41:30.555Z,34.38
2022-10-15T02:42:33.341Z,26.00
2022-10-15T02:43:36.494Z,31.08
2022-10-15T02:44:39.092Z,26.00
2022-10-15T02:45:40.961Z,32.92
2022-10-15T02:46:44.853Z,28.13
2022-10-15T02:47:46.396Z,33.85
2022-10-15T02:48:48.881Z,31.25
2022-10-15T02:49:50.388Z,27.67
2022-10-15T02:50:52.935Z,30.52
2022-10-15T02:51:54.486Z,33.75
2022-10-15T02:52:56.994Z,32.55
2022-10-15T02:53:58.565Z,27.83
2022-10-15T02:55:01.127Z,29.55
2022-10-15T02:56:02.691Z,30.15
2022-10-15T02:57:05.343Z,26.58
2022-10-15T02:58:06.891Z,32.55
2022-10-15T02:59:09.434Z,28.58
2022-10-15T03:00:11.897Z,29.35
2022-10-15T03:01:16.202Z,30.10
2022-10-15T03:02:19.422Z,29.63
2022-10-15T03:03:22.184Z,30.40
2022-10-15T03:04:23.845Z,28.02
2022-10-15T03:06:33.206Z,26.50
2022-10-15T03:07:35.777Z,25.73
2022-10-15T03:08:38.337Z,27.20
2022-10-15T03:09:40.874Z,26.05
2022-10-15T03:10:42.384Z,29.33
2022-10-15T03:11:44.861Z,23.20
2022-10-15T03:12:46.452Z,25.90
2022-10-15T03:13:49.002Z,24.73
2022-10-15T03:14:50.578Z,26.65
2022-10-15T03:15:53.071Z,23.35
2022-10-15T03:16:54.602Z,23.33
2022-10-15T03:17:58.471Z,26.27
2022-10-15T03:19:00.148Z,23.67
2022-10-15T03:20:02.649Z,32.22
2022-10-15T03:21:04.491Z,28.25
2022-10-15T03:22:06.962Z,21.92
2022-10-15T03:23:08.495Z,22.42
2022-10-15T03:24:10.944Z,27.27
2022-10-15T03:25:12.727Z,25.48
2022-10-15T03:26:15.231Z,22.80
2022-10-15T03:27:16.785Z,26.08
2022-10-15T03:28:19.903Z,32.90
2022-10-15T03:29:21.504Z,24.48
2022-10-15T03:30:23.999Z,28.15
2022-10-15T03:31:25.523Z,26.52
2022-10-15T03:32:28.037Z,24.88
2022-10-15T03:33:30.941Z,27.88
2022-10-15T03:34:33.438Z,25.27
2022-10-15T03:35:35.245Z,24.05
2022-10-15T03:36:37.757Z,22.55
2022-10-15T03:37:39.305Z,26.90
2022-10-15T03:38:41.780Z,20.17
2022-10-15T03:39:43.329Z,22.40
2022-10-15T03:40:46.790Z,19.02
2022-10-15T03:41:48.293Z,17.77
2022-10-15T03:42:51.579Z,17.40
2022-10-15T03:43:53.100Z,16.65
2022-10-15T03:44:55.576Z,20.25
2022-10-15T03:46:02.007Z,16.15
2022-10-15T03:47:04.570Z,17.50
2022-10-15T03:48:06.534Z,18.50
2022-10-15T03:49:10.530Z,18.77
2022-10-15T03:50:13.098Z,14.55
2022-10-15T03:51:18.196Z,18.35
2022-10-15T03:52:24.541Z,14.90
2022-10-15T03:53:27.157Z,17.35
2022-10-15T03:54:28.745Z,17.52
2022-10-15T03:55:31.313Z,17.10
2022-10-15T03:56:32.831Z,15.55
2022-10-15T03:57:35.303Z,14.65
2022-10-15T03:58:36.967Z,15.70
2022-10-15T03:59:40.325Z,14.18
2022-10-15T04:00:42.561Z,15.40
2022-10-15T04:01:45.447Z,15.35
2022-10-15T04:02:47.553Z,20.58
2022-10-15T04:03:53.182Z,12.35
2022-10-15T04:04:56.959Z,13.95
2022-10-15T04:05:59.919Z,16.45
2022-10-15T04:07:05.216Z,14.65
2022-10-15T04:08:06.869Z,11.77
2022-10-15T04:09:12.012Z,15.35
2022-10-15T04:10:13.635Z,12.82
2022-10-15T04:11:16.099Z,15.88
2022-10-15T04:12:18.024Z,14.27
2022-10-15T04:13:20.553Z,13.30
2022-10-15T04:14:22.064Z,15.25
2022-10-15T04:15:24.643Z,18.55
2022-10-15T04:16:26.171Z,16.15
2022-10-15T04:17:28.655Z,14.60
2022-10-15T04:18:30.198Z,16.73
2022-10-15T04:19:32.757Z,13.18
2022-10-15T04:20:35.650Z,10.73
2022-10-15T04:21:38.137Z,15.55
2022-10-15T04:22:39.666Z,15.57
2022-10-15T04:23:42.569Z,10.98
2022-10-15T04:24:44.124Z,12.23
2022-10-15T04:25:47.090Z,12.25
2022-10-15T04:26:48.624Z,15.52
2022-10-15T04:27:51.135Z,13.60
2022-10-15T04:28:52.677Z,18.17
2022-10-15T04:29:55.181Z,24.25
2022-10-15T04:30:57.897Z,17.15
2022-10-15T04:32:00.524Z,13.50
2022-10-15T04:33:02.063Z,14.98
2022-10-15T04:34:04.942Z,13.50
2022-10-15T04:35:07.027Z,17.13
2022-10-15T04:36:14.254Z,13.85
2022-10-15T04:37:15.930Z,16.02
2022-10-15T04:38:18.410Z,15.90
2022-10-15T04:39:21.341Z,14.00
2022-10-15T04:40:22.989Z,12.75
2022-10-15T04:41:26.184Z,18.67
2022-10-15T04:42:29.069Z,14.48
2022-10-15T04:43:31.828Z,14.90
2022-10-15T04:44:34.379Z,14.85
2022-10-15T04:45:35.886Z,14.15
2022-10-15T04:46:38.414Z,12.15
2022-10-15T04:47:39.931Z,14.63
2022-10-15T04:48:43.422Z,13.90
2022-10-15T04:49:45.193Z,13.95
2022-10-15T04:50:47.715Z,14.40
2022-10-15T04:51:51.564Z,15.02
2022-10-15T04:52:54.054Z,14.75
2022-10-15T04:53:55.716Z,13.05
2022-10-15T04:54:58.852Z,16.80
2022-10-15T04:56:02.053Z,15.93
2022-10-15T04:57:04.953Z,19.80
2022-10-15T04:58:06.449Z,16.23
2022-10-15T04:59:09.632Z,13.43
2022-10-15T05:00:12.574Z,15.70
2022-10-15T05:01:19.713Z,18.65
2022-10-15T05:02:21.324Z,15.80
2022-10-15T05:03:23.912Z,16.50
2022-10-15T05:04:25.635Z,14.75
2022-10-15T05:05:28.096Z,16.17
2022-10-15T05:06:29.725Z,19.35
2022-10-15T05:07:33.532Z,14.85
2022-10-15T05:08:36.065Z,15.07
2022-10-15T05:09:40.743Z,15.70
2022-10-15T05:10:44.312Z,15.02
2022-10-15T05:11:46.859Z,21.75
2022-10-15T05:12:50.329Z,17.40
2022-10-15T05:13:56.633Z,13.82
2022-10-15T05:14:58.171Z,16.70
2022-10-15T05:16:10.349Z,15.15
2022-10-15T05:17:11.853Z,19.58
2022-10-15T05:18:14.329Z,18.20
2022-10-15T05:19:16.816Z,16.50
2022-10-15T05:20:19.286Z,17.67
2022-10-15T05:21:20.899Z,18.60
2022-10-15T05:22:23.647Z,17.98
2022-10-15T05:23:26.982Z,18.13
2022-10-15T05:24:29.469Z,17.98
2022-10-15T05:25:31.289Z,18.88
2022-10-15T05:26:33.795Z,16.70
2022-10-15T05:27:35.311Z,15.30
2022-10-15T05:28:38.311Z,23.27
2022-10-15T05:29:39.951Z,22.15
2022-10-15T05:30:42.438Z,14.52
2022-10-15T05:31:44.897Z,16.98
2022-10-15T05:32:46.569Z,18.67
2022-10-15T05:33:49.739Z,15.80
2022-10-15T05:34:52.269Z,22.00
2022-10-15T05:35:53.785Z,17.08
2022-10-15T05:36:56.283Z,15.90
2022-10-15T05:37:57.814Z,16.92
2022-10-15T05:39:03.064Z,17.55
2022-10-15T05:40:05.705Z,19.48
2022-10-15T05:41:08.560Z,15.88
2022-10-15T05:42:10.150Z,20.40
2022-10-15T05:43:12.638Z,23.02
2022-10-15T05:44:14.201Z,21.70
2022-10-15T05:45:16.674Z,15.50
2022-10-15T05:46:19.177Z,15.63
2022-10-15T05:47:21.985Z,15.68
2022-10-15T05:48:24.407Z,19.85
2022-10-15T05:49:26.884Z,15.95
2022-10-15T05:50:28.401Z,20.13
2022-10-15T05:51:30.938Z,18.90
2022-10-15T05:52:32.569Z,15.93
2022-10-15T05:53:35.186Z,20.33
2022-10-15T05:54:38.021Z,18.15
2022-10-15T05:55:40.647Z,18.75
2022-10-15T05:56:42.196Z,24.88
2022-10-15T05:57:44.765Z,15.77
2022-10-15T05:58:46.338Z,18.23
2022-10-15T05:59:48.866Z,23.58
2022-10-15T06:00:54.098Z,20.15
2022-10-15T06:01:57.147Z,18.50
2022-10-15T06:02:59.033Z,20.27
2022-10-15T06:04:01.775Z,20.08
2022-10-15T06:05:04.861Z,16.30
2022-10-15T06:06:15.446Z,18.48
2022-10-15T06:07:17.204Z,17.75
2022-10-15T06:08:20.211Z,18.55
2022-10-15T06:09:22.871Z,16.75
2022-10-15T06:10:28.350Z,17.00
2022-10-15T06:11:31.757Z,20.33
2022-10-15T06:12:33.414Z,17.13
2022-10-15T06:13:36.038Z,19.90
2022-10-15T06:14:37.680Z,19.67
2022-10-15T06:15:41.510Z,21.85
2022-10-15T06:16:43.046Z,17.42
2022-10-15T06:17:45.562Z,22.15
2022-10-15T06:18:47.162Z,21.55
2022-10-15T06:19:49.664Z,26.02
2022-10-15T06:20:52.089Z,17.25
2022-10-15T06:21:54.616Z,19.60
2022-10-15T06:22:59.707Z,18.15
2022-10-15T06:24:04.128Z,27.23
2022-10-15T06:25:08.954Z,19.65
2022-10-15T06:26:12.857Z,19.33
2022-10-15T06:27:14.416Z,24.15
2022-10-15T06:28:17.219Z,20.63
2022-10-15T06:29:18.904Z,20.83
2022-10-15T06:30:22.183Z,23.65
2022-10-15T06:31:23.915Z,21.02
2022-10-15T06:32:26.552Z,21.30
2022-10-15T06:33:29.022Z,23.33
2022-10-15T06:34:31.494Z,24.98
2022-10-15T06:35:35.133Z,22.95
2022-10-15T06:36:38.968Z,24.27
2022-10-15T06:37:40.473Z,23.85
2022-10-15T06:38:44.558Z,22.58
2022-10-15T06:39:46.650Z,30.88
2022-10-15T06:40:49.664Z,20.88
2022-10-15T06:41:53.782Z,23.88
2022-10-15T06:42:56.347Z,27.48
2022-10-15T06:43:57.870Z,25.88
2022-10-15T06:45:00.361Z,29.52
2022-10-15T06:46:03.976Z,24.65
2022-10-15T06:47:06.547Z,25.30
2022-10-15T06:48:08.869Z,30.15
2022-10-15T06:49:11.788Z,24.23
2022-10-15T06:50:13.394Z,26.70
2022-10-15T06:51:16.209Z,29.98
2022-10-15T06:52:17.746Z,29.20
2022-10-15T06:53:20.325Z,29.27
2022-10-15T06:54:21.933Z,31.15
2022-10-15T06:55:24.448Z,32.70
2022-10-15T06:56:26.994Z,28.23
2022-10-15T06:57:30.624Z,32.30
2022-10-15T06:58:33.201Z,33.88
2022-10-15T06:59:38.514Z,29.75
2022-10-15T07:00:43.928Z,28.52
2022-10-15T07:01:45.721Z,27.88
2022-10-15T07:02:48.385Z,27.13
2022-10-15T07:03:50.114Z,28.13
2022-10-15T07:04:52.608Z,31.42
2022-10-15T07:05:54.104Z,25.45
2022-10-15T07:06:56.786Z,29.15
2022-10-15T07:07:58.748Z,27.20
2022-10-15T07:09:02.793Z,31.02
2022-10-15T07:10:05.164Z,28.70
2022-10-15T07:11:09.685Z,29.25
2022-10-15T07:12:11.194Z,29.38
2022-10-15T07:13:15.184Z,30.25
2022-10-15T07:14:16.883Z,30.08
2022-10-15T07:15:20.620Z,29.98
2022-10-15T07:16:22.245Z,32.83
2022-10-15T07:17:24.759Z,32.05
2022-10-15T07:18:26.308Z,33.33
2022-10-15T07:19:29.309Z,29.02
2022-10-15T07:20:32.053Z,29.20
2022-10-15T07:21:34.609Z,35.05
2022-10-15T07:22:37.202Z,31.15
2022-10-15T07:23:39.674Z,29.95
2022-10-15T07:24:41.190Z,40.47
2022-10-15T07:25:43.737Z,27.05
2022-10-15T07:26:47.009Z,33.78
2022-10-15T07:27:49.539Z,30.63
2022-10-15T07:28:53.475Z,34.38
2022-10-15T07:29:55.088Z,32.33
2022-10-15T07:31:02.351Z,31.30
2022-10-15T07:32:04.045Z,29.65
2022-10-15T07:33:07.320Z,31.00
2022-10-15T07:34:09.063Z,30.08
2022-10-15T07:35:11.633Z,29.00
2022-10-15T07:36:14.145Z,30.98
2022-10-15T07:37:15.688Z,28.85
2022-10-15T07:38:18.244Z,29.73
2022-10-15T07:39:19.855Z,32.25
2022-10-15T07:40:22.650Z,29.63
2022-10-15T07:41:24.328Z,28.90
2022-10-15T07:42:26.944Z,29.70
2022-10-15T07:43:28.733Z,32.28
2022-10-15T07:44:32.638Z,26.88
2022-10-15T07:45:35.509Z,35.08
2022-10-15T07:46:38.107Z,27.27
2022-10-15T07:47:40.185Z,27.35
2022-10-15T07:48:42.740Z,25.75
2022-10-15T07:49:44.622Z,30.50
2022-10-15T07:50:47.177Z,25.27
2022-10-15T07:51:48.730Z,27.85
2022-10-15T07:52:51.223Z,27.38
2022-10-15T07:53:52.778Z,22.65
2022-10-15T07:54:55.327Z,20.80
2022-10-15T07:55:59.779Z,24.55
2022-10-15T07:57:02.284Z,23.05
2022-10-15T07:58:08.105Z,19.90
2022-10-15T07:59:10.593Z,21.58
2022-10-15T08:00:14.049Z,19.33
2022-10-15T08:01:20.360Z,20.90
2022-10-15T08:02:22.693Z,18.35
2022-10-15T08:03:25.460Z,19.38
2022-10-15T08:04:27.183Z,20.60
2022-10-15T08:05:29.667Z,20.10
2022-10-15T08:06:32.773Z,20.60
2022-10-15T08:07:34.461Z,17.80
2022-10-15T08:08:38.159Z,18.85
2022-10-15T08:09:40.767Z,18.88
2022-10-15T08:10:42.323Z,17.55
2022-10-15T08:11:44.978Z,18.98
2022-10-15T08:12:46.588Z,15.75
2022-10-15T08:13:49.436Z,15.30
2022-10-15T08:14:51.008Z,15.85
2022-10-15T08:15:57.643Z,21.95
2022-10-15T08:17:03.641Z,13.13
2022-10-15T08:18:05.236Z,12.27
2022-10-15T08:19:07.769Z,14.63
2022-10-15T08:20:10.251Z,15.38
2022-10-15T08:21:12.876Z,18.02
2022-10-15T08:22:14.477Z,14.93
2022-10-15T08:23:17.925Z,13.68
2022-10-15T08:24:20.629Z,12.13
2022-10-15T08:25:23.178Z,16.02
2022-10-15T08:26:26.447Z,15.57
2022-10-15T08:27:28.943Z,14.35
2022-10-15T08:28:32.168Z,11.80
2022-10-15T08:29:34.705Z,12.88
2022-10-15T08:30:36.371Z,12.38
2022-10-15T08:31:40.364Z,16.33
2022-10-15T08:32:41.915Z,12.45
2022-10-15T08:33:45.971Z,12.00
2022-10-15T08:34:47.572Z,12.10
2022-10-15T08:35:50.082Z,10.13
2022-10-15T08:36:52.038Z,11.02
2022-10-15T08:37:54.803Z,14.10
2022-10-15T08:38:57.386Z,9.98
2022-10-15T08:39:58.929Z,8.43
2022-10-15T08:41:03.577Z,11.93
2022-10-15T08:42:13.113Z,9.82
2022-10-15T08:43:23.389Z,10.40
2022-10-15T08:44:31.973Z,11.65
2022-10-15T08:45:42.171Z,8.90
2022-10-15T08:46:51.131Z,9.40
2022-10-15T08:47:58.270Z,9.40
2022-10-15T08:49:02.681Z,7.72
2022-10-15T08:50:12.361Z,9.35
2022-10-15T08:51:18.218Z,9.35
2022-10-15T08:52:25.521Z,8.30
2022-10-15T08:53:29.444Z,6.82
2022-10-15T08:54:33.542Z,7.68
2022-10-15T08:55:40.055Z,20.33
2022-10-15T08:56:45.634Z,11.88
2022-10-15T08:57:54.018Z,6.82
2022-10-15T08:59:06.022Z,8.00
2022-10-15T09:00:14.010Z,6.10
2022-10-15T09:01:25.171Z,27.10
2022-10-15T09:02:34.248Z,6.45
2022-10-15T09:03:40.516Z,8.23
2022-10-15T09:04:52.989Z,6.47
2022-10-15T09:06:04.056Z,7.47
2022-10-15T09:07:13.029Z,6.50
2022-10-15T09:08:26.728Z,6.38
2022-10-15T09:09:35.757Z,5.60
2022-10-15T09:10:43.397Z,5.32
2022-10-15T09:11:57.776Z,4.28
2022-10-15T09:13:04.451Z,5.63
2022-10-15T09:14:12.669Z,10.27
2022-10-15T09:15:16.931Z,4.85
2022-10-15T09:16:23.281Z,4.65
2022-10-15T09:17:27.950Z,3.88
2022-10-15T09:18:34.553Z,3.50
2022-10-15T09:19:37.859Z,4.15
2022-10-15T09:20:40.553Z,5.10
2022-10-15T09:21:42.742Z,4.25
2022-10-15T09:23:52.915Z,4.35
2022-10-15T09:24:55.178Z,4.60
2022-10-15T09:26:06.206Z,4.05
2022-10-15T09:27:12.636Z,3.00
2022-10-15T09:28:20.521Z,4.10
2022-10-15T09:29:30.740Z,5.97
2022-10-15T09:30:38.734Z,4.93
2022-10-15T09:31:50.496Z,3.95
2022-10-15T09:32:59.121Z,3.30
2022-10-15T09:34:10.398Z,2.88
2022-10-15T09:35:20.395Z,2.95
2022-10-15T09:36:35.233Z,4.32
2022-10-15T09:37:49.970Z,5.68
2022-10-15T09:39:04.189Z,4.03
2022-10-15T09:40:34.425Z,6.47
2022-10-15T09:41:48.952Z,2.50
2022-10-15T09:42:52.504Z,2.60
2022-10-15T09:43:58.244Z,4.23
2022-10-15T09:45:03.979Z,2.50
2022-10-15T09:46:06.981Z,5.03
2022-10-15T09:47:23.847Z,3.07
2022-10-15T09:48:28.943Z,2.20
2022-10-15T09:49:36.247Z,2.78
2022-10-15T09:50:44.753Z,3.50
2022-10-15T09:51:57.121Z,3.30
2022-10-15T09:53:13.653Z,2.30
2022-10-15T09:54:23.023Z,3.38
2022-10-15T09:55:35.917Z,2.30
2022-10-15T09:56:42.355Z,3.00
2022-10-15T09:57:49.616Z,4.37
2022-10-15T09:58:54.716Z,2.10
2022-10-15T10:00:01.050Z,2.20
2022-10-15T10:01:08.999Z,3.50
2022-10-15T10:02:19.974Z,1.83
2022-10-15T10:03:24.681Z,1.93
2022-10-15T10:04:29.212Z,2.28
2022-10-15T10:05:36.363Z,1.90
2022-10-15T10:06:45.047Z,8.13
2022-10-15T10:07:47.744Z,4.70
2022-10-15T10:08:55.608Z,2.90
2022-10-15T10:10:00.956Z,2.07
2022-10-15T10:11:04.655Z,2.33
2022-10-15T10:12:09.519Z,4.03
2022-10-15T10:13:23.739Z,2.17
2022-10-15T10:14:30.472Z,2.27
2022-10-15T10:15:34.356Z,2.17
2022-10-15T10:16:59.411Z,3.20
2022-10-15T10:18:02.542Z,2.60
2022-10-15T10:19:12.300Z,3.70
2022-10-15T10:20:20.423Z,3.03
2022-10-15T10:21:28.557Z,4.60
2022-10-15T10:22:31.837Z,1.85
2022-10-15T10:23:35.698Z,2.30
2022-10-15T10:24:38.205Z,3.10
2022-10-15T10:25:42.355Z,4.17
2022-10-15T10:26:45.571Z,3.83
2022-10-15T10:27:47.211Z,2.27
2022-10-15T10:28:56.979Z,4.27
2022-10-15T10:30:07.724Z,2.53
2022-10-15T10:31:11.658Z,23.38
2022-10-15T10:32:19.903Z,6.80
2022-10-15T10:33:27.369Z,3.50
2022-10-15T10:34:31.745Z,3.17
2022-10-15T10:35:46.076Z,2.73
2022-10-15T10:36:53.566Z,4.50
2022-10-15T10:37:55.151Z,2.60
2022-10-15T10:39:02.641Z,1.90
2022-10-15T10:40:19.027Z,2.10
2022-10-15T10:41:21.115Z,6.03
2022-10-15T10:42:32.962Z,6.23
2022-10-15T10:43:39.109Z,2.40
2022-10-15T10:44:46.420Z,4.23
2022-10-15T10:45:56.023Z,2.97
2022-10-15T10:47:15.294Z,2.80
2022-10-15T10:48:19.874Z,4.85
2022-10-15T10:49:32.088Z,5.33
2022-10-15T10:50:40.478Z,2.70
2022-10-15T10:51:51.124Z,2.72
2022-10-15T10:52:53.467Z,2.55
2022-10-15T10:53:59.091Z,4.40
2022-10-15T10:55:02.820Z,2.10
2022-10-15T10:56:10.411Z,4.07
2022-10-15T10:57:15.749Z,2.47
2022-10-15T10:58:24.833Z,4.00
2022-10-15T10:59:33.702Z,2.10
2022-10-15T11:00:40.120Z,5.13
2022-10-15T11:01:42.963Z,3.40
2022-10-15T11:02:44.961Z,2.60
2022-10-15T11:03:48.439Z,2.23
2022-10-15T11:04:49.967Z,2.70
2022-10-15T11:06:02.632Z,2.40
2022-10-15T11:07:09.327Z,2.25
2022-10-15T11:08:19.336Z,2.50
2022-10-15T11:09:43.533Z,3.40
2022-10-15T11:10:52.843Z,5.93
2022-10-15T11:12:11.504Z,2.65
2022-10-15T11:13:31.564Z,7.67
2022-10-15T11:14:46.875Z,2.30
2022-10-15T11:15:57.974Z,4.50
2022-10-15T11:17:07.632Z,2.90
2022-10-15T11:18:28.828Z,3.10
2022-10-15T11:20:05.970Z,3.10
2022-10-15T11:21:08.396Z,2.60
2022-10-15T11:22:32.346Z,2.70
2022-10-15T11:23:56.107Z,3.83
2022-10-15T11:25:07.308Z,3.17
2022-10-15T11:26:27.748Z,2.80
2022-10-15T11:27:46.229Z,2.60
2022-10-15T11:28:59.449Z,3.60
2022-10-15T11:30:07.137Z,3.83
2022-10-15T11:31:15.514Z,2.23
2022-10-15T11:32:42.438Z,3.00
2022-10-15T11:34:06.791Z,3.67
2022-10-15T11:35:51.630Z,4.50
2022-10-15T11:37:02.309Z,4.23
2022-10-15T11:38:18.674Z,3.03
2022-10-15T11:39:41.021Z,3.40
2022-10-15T11:40:57.972Z,2.65
2022-10-15T11:42:08.571Z,5.10
2022-10-15T11:43:19.965Z,2.90
2022-10-15T11:44:32.598Z,2.10
2022-10-15T11:45:50.614Z,6.13
2022-10-15T11:47:08.390Z,4.53
2022-10-15T11:48:17.250Z,2.83
2022-10-15T11:50:44.906Z,2.70
2022-10-15T11:52:04.357Z,2.78
2022-10-15T11:53:30.815Z,2.50
2022-10-15T11:54:38.048Z,2.43
2022-10-15T11:55:43.455Z,2.43
2022-10-15T11:56:48.542Z,2.77
2022-10-15T11:57:54.805Z,3.33
2022-10-15T11:59:00.835Z,3.03
2022-10-15T12:00:15.307Z,2.70
2022-10-15T12:01:24.037Z,2.70
2022-10-15T12:02:32.932Z,2.70
2022-10-15T12:03:41.944Z,3.27
2022-10-15T12:04:49.393Z,2.63
2022-10-15T12:05:54.490Z,4.50
2022-10-15T12:06:59.699Z,5.13
2022-10-15T12:09:13.039Z,4.13
2022-10-15T12:10:31.827Z,2.53
2022-10-15T12:11:45.201Z,2.80
2022-10-15T12:12:56.987Z,3.40
2022-10-15T12:14:05.460Z,2.70
2022-10-15T12:15:25.309Z,3.13
2022-10-15T12:16:35.437Z,8.70
2022-10-15T12:17:47.984Z,3.33
2022-10-15T12:18:55.156Z,4.50
2022-10-15T12:20:02.978Z,3.73
2022-10-15T12:21:24.550Z,4.03
2022-10-15T12:22:37.674Z,4.57
2022-10-15T12:23:42.194Z,3.83
2022-10-15T12:24:54.582Z,5.60
2022-10-15T12:25:56.164Z,3.00
2022-10-15T12:27:16.646Z,4.63
2022-10-15T12:28:24.942Z,3.10
2022-10-15T12:29:27.581Z,2.70
2022-10-15T12:30:34.658Z,2.20
2022-10-15T12:31:49.784Z,3.87
2022-10-15T12:32:52.950Z,1.97
2022-10-15T12:33:57.342Z,1.70
2022-10-15T12:35:00.817Z,5.07
2022-10-15T12:36:09.288Z,2.80
2022-10-15T12:37:17.460Z,1.77
2022-10-15T12:38:25.711Z,2.40
2022-10-15T12:39:51.217Z,1.40
2022-10-15T12:40:59.844Z,1.57
2022-10-15T12:42:02.061Z,2.17
2022-10-15T12:43:13.031Z,2.97
2022-10-15T12:44:21.745Z,5.40
2022-10-15T12:45:27.354Z,2.70
2022-10-15T12:46:37.630Z,2.13
2022-10-15T12:47:50.207Z,1.30
2022-10-15T12:48:56.022Z,3.10
2022-10-15T12:50:03.799Z,2.90
2022-10-15T12:51:40.050Z,5.97
2022-10-15T12:52:59.597Z,2.23
2022-10-15T12:54:03.081Z,2.43
2022-10-15T12:55:26.664Z,1.30
2022-10-15T12:56:41.739Z,1.73
2022-10-15T12:57:55.044Z,3.13
2022-10-15T12:58:57.643Z,1.30
2022-10-15T13:00:00.549Z,1.83
2022-10-15T13:01:08.656Z,1.73
2022-10-15T13:02:35.128Z,2.00
2022-10-15T13:03:40.475Z,0.80
2022-10-15T13:04:43.104Z,1.27
2022-10-15T13:05:47.903Z,0.87
2022-10-15T13:06:53.948Z,1.70
2022-10-15T13:07:57.598Z,7.10
2022-10-15T13:09:07.740Z,1.33
2022-10-15T13:10:21.534Z,3.23
2022-10-15T13:11:27.875Z,2.50
2022-10-15T13:12:32.862Z,1.30
2022-10-15T13:13:35.527Z,15.60
2022-10-15T13:14:42.598Z,4.57
2022-10-15T13:15:54.492Z,1.47
2022-10-15T13:17:01.887Z,1.60
2022-10-15T13:18:08.679Z,2.40
2022-10-15T13:19:18.990Z,1.67
2022-10-15T13:20:41.812Z,2.10
2022-10-15T13:21:53.845Z,4.20
2022-10-15T13:23:18.843Z,1.00
2022-10-15T13:24:39.569Z,6.33
2022-10-15T13:25:41.142Z,21.70
2022-10-15T13:26:43.956Z,1.03
2022-10-15T13:27:46.881Z,2.20
2022-10-15T13:28:50.668Z,1.07
2022-10-15T13:29:57.740Z,2.60
2022-10-15T13:31:00.865Z,2.70
2022-10-15T13:32:03.461Z,1.23
2022-10-15T13:33:05.123Z,1.77
2022-10-15T13:34:14.127Z,1.30
2022-10-15T13:35:19.827Z,3.57
2022-10-15T13:36:24.893Z,2.80
2022-10-15T13:37:32.572Z,1.20
2022-10-15T13:38:37.095Z,1.30
2022-10-15T13:39:41.748Z,1.00
2022-10-15T13:40:47.499Z,1.20
2022-10-15T13:41:50.669Z,1.10
2022-10-15T13:43:00.784Z,1.10
2022-10-15T13:44:04.354Z,2.20
2022-10-15T13:45:19.130Z,1.67
2022-10-15T13:46:23.774Z,1.77
2022-10-15T13:47:29.738Z,1.40
2022-10-15T13:48:32.784Z,1.87
2022-10-15T13:49:36.444Z,1.33
2022-10-15T13:50:39.698Z,4.70
2022-10-15T13:51:45.057Z,1.30
2022-10-15T13:52:49.913Z,1.10
2022-10-15T13:53:52.540Z,1.50
2022-10-15T13:54:54.133Z,1.40
2022-10-15T13:55:58.720Z,2.60
2022-10-15T13:57:02.416Z,1.23
2022-10-15T13:58:15.840Z,3.30
2022-10-15T13:59:20.052Z,4.10
2022-10-15T14:00:25.626Z,1.20
2022-10-15T14:01:29.683Z,1.20
2022-10-15T14:02:31.425Z,1.30
2022-10-15T14:03:35.763Z,6.30
2022-10-15T14:04:37.511Z,1.83
2022-10-15T14:05:40.316Z,1.17
2022-10-15T14:06:43.902Z,1.93
2022-10-15T14:07:54.425Z,2.70
2022-10-15T14:08:58.558Z,3.60
2022-10-15T14:10:00.093Z,1.40
2022-10-15T14:11:02.912Z,1.53
2022-10-15T14:12:05.938Z,1.30
2022-10-15T14:13:11.352Z,1.10
2022-10-15T14:14:31.498Z,1.30
2022-10-15T14:15:46.457Z,1.37
2022-10-15T14:16:49.409Z,1.47
2022-10-15T14:17:51.860Z,2.03
2022-10-15T14:18:58.116Z,1.30
2022-10-15T14:20:25.672Z,2.73
2022-10-15T14:21:29.005Z,5.73
2022-10-15T14:22:31.520Z,4.43